sensor_id;sensor_type;location;lat;lon;timestamp;pressure;altitude;pressure_sealevel;temperature;humidity
17855;BME280;9053;53.358;6.382;2024-01-07T00:00:16;102041.59;;;0.97;100.00
17855;BME280;9053;53.358;6.382;2024-01-07T00:02:52;102038.78;;;0.85;100.00
17855;BME280;9053;53.358;6.382;2024-01-07T00:05:26;102052.44;;;0.74;100.00
17855;BME280;9053;53.358;6.382;2024-01-07T00:08:00;102053.53;;;0.68;100.00
17855;BME280;9053;53.358;6.382;2024-01-07T00:10:35;102054.56;;;0.78;100.00
17855;BME280;9053;53.358;6.382;2024-01-07T00:13:08;102049.84;;;0.93;100.00
17855;BME280;9053;53.358;6.382;2024-01-07T00:15:39;102053.16;;;1.01;100.00
17855;BME280;9053;53.358;6.382;2024-01-07T00:18:13;102049.44;;;1.07;100.00
17855;BME280;9053;53.358;6.382;2024-01-07T00:20:43;102048.75;;;1.00;100.00
17855;BME280;9053;53.358;6.382;2024-01-07T00:23:13;102049.38;;;0.97;100.00
17855;BME280;9053;53.358;6.382;2024-01-07T00:25:45;102054.41;;;0.96;100.00
17855;BME280;9053;53.358;6.382;2024-01-07T00:28:15;102056.44;;;0.90;100.00
17855;BME280;9053;53.358;6.382;2024-01-07T00:30:45;102057.47;;;0.73;100.00
17855;BME280;9053;53.358;6.382;2024-01-07T00:33:22;102064.69;;;0.39;100.00
17855;BME280;9053;53.358;6.382;2024-01-07T00:35:55;102068.19;;;0.39;100.00
17855;BME280;9053;53.358;6.382;2024-01-07T00:38:33;102080.69;;;0.35;100.00
17855;BME280;9053;53.358;6.382;2024-01-07T00:41:10;102074.38;;;0.50;100.00
17855;BME280;9053;53.358;6.382;2024-01-07T00:43:41;102086.81;;;0.35;100.00
17855;BME280;9053;53.358;6.382;2024-01-07T00:46:11;102090.91;;;0.33;100.00
17855;BME280;9053;53.358;6.382;2024-01-07T00:48:44;102091.44;;;0.20;100.00
17855;BME280;9053;53.358;6.382;2024-01-07T00:51:13;102098.69;;;0.25;100.00
17855;BME280;9053;53.358;6.382;2024-01-07T00:53:43;102112.38;;;0.32;100.00
17855;BME280;9053;53.358;6.382;2024-01-07T00:56:16;102102.19;;;0.25;100.00
17855;BME280;9053;53.358;6.382;2024-01-07T00:58:46;102104.59;;;0.32;100.00
17855;BME280;9053;53.358;6.382;2024-01-07T01:01:18;102098.63;;;0.42;100.00
17855;BME280;9053;53.358;6.382;2024-01-07T01:03:48;102126.75;;;0.48;100.00
17855;BME280;9053;53.358;6.382;2024-01-07T01:06:19;102118.06;;;0.56;100.00
17855;BME280;9053;53.358;6.382;2024-01-07T01:08:49;102125.94;;;0.57;100.00
17855;BME280;9053;53.358;6.382;2024-01-07T01:11:21;102129.25;;;0.37;100.00
17855;BME280;9053;53.358;6.382;2024-01-07T01:13:53;102145.31;;;0.16;100.00
17855;BME280;9053;53.358;6.382;2024-01-07T01:16:23;102130.41;;;0.13;100.00
17855;BME280;9053;53.358;6.382;2024-01-07T01:18:53;102137.44;;;0.06;100.00
17855;BME280;9053;53.358;6.382;2024-01-07T01:21:23;102134.34;;;0.10;100.00
17855;BME280;9053;53.358;6.382;2024-01-07T01:23:53;102140.47;;;0.02;100.00
17855;BME280;9053;53.358;6.382;2024-01-07T01:26:28;102140.03;;;-0.03;100.00
17855;BME280;9053;53.358;6.382;2024-01-07T01:28:58;102151.00;;;-0.06;100.00
17855;BME280;9053;53.358;6.382;2024-01-07T01:31:28;102156.78;;;0.01;100.00
17855;BME280;9053;53.358;6.382;2024-01-07T01:34:00;102157.53;;;-0.01;100.00
17855;BME280;9053;53.358;6.382;2024-01-07T01:36:30;102164.22;;;-0.03;100.00
17855;BME280;9053;53.358;6.382;2024-01-07T01:39:05;102165.13;;;0.07;100.00
17855;BME280;9053;53.358;6.382;2024-01-07T01:41:38;102153.81;;;0.15;100.00
17855;BME280;9053;53.358;6.382;2024-01-07T01:44:09;102167.09;;;0.18;100.00
17855;BME280;9053;53.358;6.382;2024-01-07T01:46:40;102164.81;;;0.04;100.00
17855;BME280;9053;53.358;6.382;2024-01-07T01:49:10;102171.19;;;0.07;100.00
17855;BME280;9053;53.358;6.382;2024-01-07T01:51:43;102174.06;;;0.19;100.00
17855;BME280;9053;53.358;6.382;2024-01-07T01:54:20;102176.31;;;0.33;100.00
17855;BME280;9053;53.358;6.382;2024-01-07T01:56:56;102176.94;;;0.31;100.00
17855;BME280;9053;53.358;6.382;2024-01-07T01:59:28;102175.13;;;0.21;100.00
17855;BME280;9053;53.358;6.382;2024-01-07T02:02:01;102169.16;;;0.31;100.00
17855;BME280;9053;53.358;6.382;2024-01-07T02:04:36;102180.53;;;0.41;100.00
17855;BME280;9053;53.358;6.382;2024-01-07T02:07:11;102175.94;;;0.48;100.00
17855;BME280;9053;53.358;6.382;2024-01-07T02:09:41;102182.78;;;0.47;100.00
17855;BME280;9053;53.358;6.382;2024-01-07T02:12:14;102189.22;;;0.42;100.00
17855;BME280;9053;53.358;6.382;2024-01-07T02:14:46;102190.94;;;0.24;100.00
17855;BME280;9053;53.358;6.382;2024-01-07T02:17:16;102190.69;;;0.04;100.00
17855;BME280;9053;53.358;6.382;2024-01-07T02:19:46;102189.50;;;-0.09;100.00
17855;BME280;9053;53.358;6.382;2024-01-07T02:22:19;102185.38;;;-0.15;100.00
17855;BME280;9053;53.358;6.382;2024-01-07T02:24:52;102188.91;;;-0.15;100.00
17855;BME280;9053;53.358;6.382;2024-01-07T02:27:22;102189.03;;;-0.13;100.00
17855;BME280;9053;53.358;6.382;2024-01-07T02:29:52;102181.56;;;-0.10;100.00
17855;BME280;9053;53.358;6.382;2024-01-07T02:32:22;102192.84;;;-0.10;100.00
17855;BME280;9053;53.358;6.382;2024-01-07T02:34:53;102190.09;;;-0.11;100.00
17855;BME280;9053;53.358;6.382;2024-01-07T02:37:23;102201.19;;;-0.04;100.00
17855;BME280;9053;53.358;6.382;2024-01-07T02:39:55;102199.34;;;0.13;100.00
17855;BME280;9053;53.358;6.382;2024-01-07T02:42:27;102199.50;;;0.14;100.00
17855;BME280;9053;53.358;6.382;2024-01-07T02:44:57;102213.19;;;0.13;100.00
17855;BME280;9053;53.358;6.382;2024-01-07T02:47:27;102208.78;;;0.21;100.00
17855;BME280;9053;53.358;6.382;2024-01-07T02:49:57;102220.31;;;0.33;100.00
17855;BME280;9053;53.358;6.382;2024-01-07T02:52:27;102216.22;;;0.27;100.00
17855;BME280;9053;53.358;6.382;2024-01-07T02:55:00;102218.63;;;0.34;100.00
17855;BME280;9053;53.358;6.382;2024-01-07T02:57:31;102218.47;;;0.41;100.00
17855;BME280;9053;53.358;6.382;2024-01-07T03:00:02;102236.25;;;0.47;100.00
17855;BME280;9053;53.358;6.382;2024-01-07T03:02:32;102216.78;;;0.41;100.00
17855;BME280;9053;53.358;6.382;2024-01-07T03:05:02;102223.75;;;0.42;100.00
17855;BME280;9053;53.358;6.382;2024-01-07T03:07:32;102242.22;;;0.37;100.00
17855;BME280;9053;53.358;6.382;2024-01-07T03:10:06;102239.94;;;0.31;100.00
17855;BME280;9053;53.358;6.382;2024-01-07T03:12:36;102249.53;;;0.32;100.00
17855;BME280;9053;53.358;6.382;2024-01-07T03:15:12;102256.22;;;0.30;100.00
17855;BME280;9053;53.358;6.382;2024-01-07T03:17:47;102257.56;;;0.44;100.00
17855;BME280;9053;53.358;6.382;2024-01-07T03:20:17;102268.53;;;0.41;100.00
17855;BME280;9053;53.358;6.382;2024-01-07T03:22:46;102253.75;;;0.49;100.00
17855;BME280;9053;53.358;6.382;2024-01-07T03:25:19;102263.06;;;0.38;100.00
17855;BME280;9053;53.358;6.382;2024-01-07T03:27:49;102271.91;;;0.40;100.00
17855;BME280;9053;53.358;6.382;2024-01-07T03:30:19;102267.94;;;0.44;100.00
17855;BME280;9053;53.358;6.382;2024-01-07T03:32:50;102263.41;;;0.33;100.00
17855;BME280;9053;53.358;6.382;2024-01-07T03:35:22;102273.75;;;0.24;100.00
17855;BME280;9053;53.358;6.382;2024-01-07T03:37:52;102278.31;;;0.27;100.00
17855;BME280;9053;53.358;6.382;2024-01-07T03:40:25;102269.16;;;0.30;100.00
17855;BME280;9053;53.358;6.382;2024-01-07T03:42:55;102277.09;;;0.32;100.00
17855;BME280;9053;53.358;6.382;2024-01-07T03:45:25;102278.94;;;0.24;100.00
17855;BME280;9053;53.358;6.382;2024-01-07T03:47:55;102283.63;;;0.19;100.00
17855;BME280;9053;53.358;6.382;2024-01-07T03:50:25;102289.28;;;0.15;100.00
17855;BME280;9053;53.358;6.382;2024-01-07T03:52:55;102296.59;;;0.11;100.00
17855;BME280;9053;53.358;6.382;2024-01-07T03:55:29;102294.75;;;0.10;100.00
17855;BME280;9053;53.358;6.382;2024-01-07T03:58:00;102301.78;;;0.11;100.00
17855;BME280;9053;53.358;6.382;2024-01-07T04:00:30;102314.84;;;0.12;100.00
17855;BME280;9053;53.358;6.382;2024-01-07T04:03:00;102301.31;;;0.06;100.00
17855;BME280;9053;53.358;6.382;2024-01-07T04:05:32;102302.69;;;0.03;100.00
17855;BME280;9053;53.358;6.382;2024-01-07T04:08:04;102308.16;;;0.06;100.00
17855;BME280;9053;53.358;6.382;2024-01-07T04:10:40;102315.94;;;0.06;100.00
17855;BME280;9053;53.358;6.382;2024-01-07T04:13:10;102320.47;;;0.17;100.00
17855;BME280;9053;53.358;6.382;2024-01-07T04:15:40;102331.13;;;0.20;100.00
17855;BME280;9053;53.358;6.382;2024-01-07T04:18:10;102324.72;;;0.25;100.00
17855;BME280;9053;53.358;6.382;2024-01-07T04:20:43;102324.13;;;0.28;100.00
17855;BME280;9053;53.358;6.382;2024-01-07T04:23:17;102330.53;;;0.31;100.00
17855;BME280;9053;53.358;6.382;2024-01-07T04:25:49;102337.50;;;0.32;100.00
17855;BME280;9053;53.358;6.382;2024-01-07T04:28:19;102340.25;;;0.25;100.00
17855;BME280;9053;53.358;6.382;2024-01-07T04:30:49;102330.69;;;0.24;100.00
17855;BME280;9053;53.358;6.382;2024-01-07T04:33:22;102336.75;;;0.25;100.00
17855;BME280;9053;53.358;6.382;2024-01-07T04:35:52;102339.22;;;0.23;100.00
17855;BME280;9053;53.358;6.382;2024-01-07T04:38:24;102337.06;;;0.28;100.00
17855;BME280;9053;53.358;6.382;2024-01-07T04:40:57;102348.19;;;0.35;100.00
17855;BME280;9053;53.358;6.382;2024-01-07T04:43:27;102350.44;;;0.32;100.00
17855;BME280;9053;53.358;6.382;2024-01-07T04:45:57;102363.25;;;0.39;100.00
17855;BME280;9053;53.358;6.382;2024-01-07T04:48:27;102354.41;;;0.37;100.00
17855;BME280;9053;53.358;6.382;2024-01-07T04:50:57;102364.16;;;0.31;100.00
17855;BME280;9053;53.358;6.382;2024-01-07T04:53:29;102371.50;;;0.35;100.00
17855;BME280;9053;53.358;6.382;2024-01-07T04:56:02;102366.47;;;0.28;100.00
17855;BME280;9053;53.358;6.382;2024-01-07T04:58:35;102374.84;;;0.26;100.00
17855;BME280;9053;53.358;6.382;2024-01-07T05:01:06;102376.34;;;0.24;100.00
17855;BME280;9053;53.358;6.382;2024-01-07T05:03:37;102370.09;;;0.30;100.00
17855;BME280;9053;53.358;6.382;2024-01-07T05:06:08;102382.28;;;0.31;100.00
17855;BME280;9053;53.358;6.382;2024-01-07T05:08:40;102391.41;;;0.28;100.00
17855;BME280;9053;53.358;6.382;2024-01-07T05:11:13;102393.06;;;0.27;100.00
17855;BME280;9053;53.358;6.382;2024-01-07T05:13:44;102393.53;;;0.32;100.00
17855;BME280;9053;53.358;6.382;2024-01-07T05:16:18;102402.53;;;0.27;99.95
17855;BME280;9053;53.358;6.382;2024-01-07T05:18:48;102414.56;;;0.26;99.78
17855;BME280;9053;53.358;6.382;2024-01-07T05:21:19;102413.66;;;0.26;99.59
17855;BME280;9053;53.358;6.382;2024-01-07T05:23:49;102413.19;;;0.21;99.23
17855;BME280;9053;53.358;6.382;2024-01-07T05:26:22;102416.50;;;0.20;99.11
17855;BME280;9053;53.358;6.382;2024-01-07T05:28:52;102430.22;;;0.19;98.70
17855;BME280;9053;53.358;6.382;2024-01-07T05:31:21;102427.19;;;0.23;98.46
17855;BME280;9053;53.358;6.382;2024-01-07T05:33:52;102429.16;;;0.34;98.27
17855;BME280;9053;53.358;6.382;2024-01-07T05:36:22;102446.22;;;0.32;98.16
17855;BME280;9053;53.358;6.382;2024-01-07T05:38:53;102452.00;;;0.30;97.77
17855;BME280;9053;53.358;6.382;2024-01-07T05:41:26;102458.84;;;0.29;97.23
17855;BME280;9053;53.358;6.382;2024-01-07T05:43:56;102451.25;;;0.31;96.99
17855;BME280;9053;53.358;6.382;2024-01-07T05:46:25;102463.72;;;0.35;96.79
17855;BME280;9053;53.358;6.382;2024-01-07T05:48:58;102452.75;;;0.37;96.61
17855;BME280;9053;53.358;6.382;2024-01-07T05:51:28;102450.03;;;0.36;96.33
17855;BME280;9053;53.358;6.382;2024-01-07T05:53:58;102458.88;;;0.38;96.09
17855;BME280;9053;53.358;6.382;2024-01-07T05:56:30;102457.50;;;0.41;96.09
17855;BME280;9053;53.358;6.382;2024-01-07T05:59:00;102450.34;;;0.39;95.93
17855;BME280;9053;53.358;6.382;2024-01-07T06:01:31;102457.97;;;0.46;95.77
17855;BME280;9053;53.358;6.382;2024-01-07T06:04:01;102476.56;;;0.51;95.67
17855;BME280;9053;53.358;6.382;2024-01-07T06:06:31;102467.25;;;0.44;95.23
17855;BME280;9053;53.358;6.382;2024-01-07T06:09:01;102463.59;;;0.42;94.85
17855;BME280;9053;53.358;6.382;2024-01-07T06:11:34;102478.34;;;0.34;94.38
17855;BME280;9053;53.358;6.382;2024-01-07T06:14:04;102483.97;;;0.30;94.03
17855;BME280;9053;53.358;6.382;2024-01-07T06:16:34;102499.19;;;0.27;93.88
17855;BME280;9053;53.358;6.382;2024-01-07T06:19:04;102477.28;;;0.24;93.71
17855;BME280;9053;53.358;6.382;2024-01-07T06:21:34;102501.47;;;0.24;93.70
17855;BME280;9053;53.358;6.382;2024-01-07T06:24:04;102493.41;;;0.21;93.57
17855;BME280;9053;53.358;6.382;2024-01-07T06:26:36;102517.44;;;0.20;93.45
17855;BME280;9053;53.358;6.382;2024-01-07T06:29:10;102522.47;;;0.27;93.29
17855;BME280;9053;53.358;6.382;2024-01-07T06:31:43;102510.13;;;0.25;93.35
17855;BME280;9053;53.358;6.382;2024-01-07T06:34:14;102507.41;;;0.32;93.50
17855;BME280;9053;53.358;6.382;2024-01-07T06:36:46;102520.22;;;0.39;93.56
17855;BME280;9053;53.358;6.382;2024-01-07T06:39:19;102522.81;;;0.39;93.53
17855;BME280;9053;53.358;6.382;2024-01-07T06:41:52;102527.56;;;0.43;93.53
17855;BME280;9053;53.358;6.382;2024-01-07T06:44:22;102534.84;;;0.38;93.57
17855;BME280;9053;53.358;6.382;2024-01-07T06:46:55;102540.63;;;0.45;93.61
17855;BME280;9053;53.358;6.382;2024-01-07T06:49:24;102546.41;;;0.33;93.34
17855;BME280;9053;53.358;6.382;2024-01-07T06:51:55;102549.13;;;0.26;93.36
17855;BME280;9053;53.358;6.382;2024-01-07T06:54:25;102552.63;;;0.27;93.29
17855;BME280;9053;53.358;6.382;2024-01-07T06:56:57;102563.88;;;0.27;93.38
17855;BME280;9053;53.358;6.382;2024-01-07T06:59:27;102562.34;;;0.20;93.08
17855;BME280;9053;53.358;6.382;2024-01-07T07:01:57;102575.13;;;0.19;93.03
17855;BME280;9053;53.358;6.382;2024-01-07T07:04:29;102582.13;;;0.20;92.91
17855;BME280;9053;53.358;6.382;2024-01-07T07:07:00;102574.22;;;0.18;92.87
17855;BME280;9053;53.358;6.382;2024-01-07T07:09:30;102576.50;;;0.15;92.68
17855;BME280;9053;53.358;6.382;2024-01-07T07:12:05;102581.22;;;0.19;92.67
17855;BME280;9053;53.358;6.382;2024-01-07T07:14:35;102588.72;;;0.34;92.72
17855;BME280;9053;53.358;6.382;2024-01-07T07:17:05;102588.91;;;0.35;92.63
17855;BME280;9053;53.358;6.382;2024-01-07T07:19:35;102596.06;;;0.47;92.70
17855;BME280;9053;53.358;6.382;2024-01-07T07:22:10;102608.06;;;0.37;92.35
17855;BME280;9053;53.358;6.382;2024-01-07T07:24:43;102610.78;;;0.30;92.25
17855;BME280;9053;53.358;6.382;2024-01-07T07:27:15;102611.34;;;0.19;92.01
17855;BME280;9053;53.358;6.382;2024-01-07T07:29:45;102614.06;;;0.12;91.91
17855;BME280;9053;53.358;6.382;2024-01-07T07:32:15;102615.91;;;0.13;91.89
17855;BME280;9053;53.358;6.382;2024-01-07T07:34:46;102621.09;;;0.13;91.79
17855;BME280;9053;53.358;6.382;2024-01-07T07:37:19;102630.97;;;0.17;91.82
17855;BME280;9053;53.358;6.382;2024-01-07T07:39:49;102628.06;;;0.14;91.79
17855;BME280;9053;53.358;6.382;2024-01-07T07:42:21;102631.56;;;0.14;91.68
17855;BME280;9053;53.358;6.382;2024-01-07T07:44:56;102633.88;;;0.20;91.68
17855;BME280;9053;53.358;6.382;2024-01-07T07:47:31;102644.91;;;0.35;91.71
17855;BME280;9053;53.358;6.382;2024-01-07T07:50:01;102648.56;;;0.37;91.67
17855;BME280;9053;53.358;6.382;2024-01-07T07:52:31;102650.38;;;0.29;91.50
17855;BME280;9053;53.358;6.382;2024-01-07T07:55:03;102652.03;;;0.29;91.43
17855;BME280;9053;53.358;6.382;2024-01-07T07:57:42;102650.72;;;0.41;91.53
17855;BME280;9053;53.358;6.382;2024-01-07T08:00:16;102658.81;;;0.53;91.62
17855;BME280;9053;53.358;6.382;2024-01-07T08:02:49;102666.03;;;0.64;91.62
17855;BME280;9053;53.358;6.382;2024-01-07T08:05:19;102657.19;;;0.62;91.65
17855;BME280;9053;53.358;6.382;2024-01-07T08:07:49;102667.25;;;0.59;91.65
17855;BME280;9053;53.358;6.382;2024-01-07T08:10:19;102685.78;;;0.46;91.49
17855;BME280;9053;53.358;6.382;2024-01-07T08:12:52;102663.47;;;0.31;91.27
17855;BME280;9053;53.358;6.382;2024-01-07T08:15:22;102677.63;;;0.34;91.39
17855;BME280;9053;53.358;6.382;2024-01-07T08:17:53;102683.59;;;0.33;91.29
17855;BME280;9053;53.358;6.382;2024-01-07T08:20:23;102679.16;;;0.32;91.19
17855;BME280;9053;53.358;6.382;2024-01-07T08:22:56;102680.53;;;0.37;91.18
17855;BME280;9053;53.358;6.382;2024-01-07T08:25:31;102684.81;;;0.37;91.19
17855;BME280;9053;53.358;6.382;2024-01-07T08:28:06;102693.06;;;0.41;91.28
17855;BME280;9053;53.358;6.382;2024-01-07T08:30:43;102695.25;;;0.54;91.40
17855;BME280;9053;53.358;6.382;2024-01-07T08:33:14;102693.44;;;0.62;91.52
17855;BME280;9053;53.358;6.382;2024-01-07T08:35:44;102701.88;;;0.68;91.43
17855;BME280;9053;53.358;6.382;2024-01-07T08:38:16;102720.31;;;0.71;91.45
17855;BME280;9053;53.358;6.382;2024-01-07T08:40:59;102709.75;;;0.61;91.39
17855;BME280;9053;53.358;6.382;2024-01-07T08:43:32;102713.84;;;0.59;91.36
17855;BME280;9053;53.358;6.382;2024-01-07T08:46:03;102721.44;;;0.57;91.27
17855;BME280;9053;53.358;6.382;2024-01-07T08:48:34;102726.59;;;0.49;91.05
17855;BME280;9053;53.358;6.382;2024-01-07T08:51:05;102721.84;;;0.45;90.99
17855;BME280;9053;53.358;6.382;2024-01-07T08:53:36;102732.19;;;0.45;90.79
17855;BME280;9053;53.358;6.382;2024-01-07T08:56:07;102739.97;;;0.45;90.65
17855;BME280;9053;53.358;6.382;2024-01-07T08:58:40;102744.53;;;0.38;90.31
17855;BME280;9053;53.358;6.382;2024-01-07T09:01:10;102742.41;;;0.43;90.20
17855;BME280;9053;53.358;6.382;2024-01-07T09:03:41;102748.50;;;0.43;90.22
17855;BME280;9053;53.358;6.382;2024-01-07T09:06:13;102758.75;;;0.51;90.04
17855;BME280;9053;53.358;6.382;2024-01-07T09:08:43;102753.41;;;0.49;89.94
17855;BME280;9053;53.358;6.382;2024-01-07T09:11:18;102751.06;;;0.68;89.93
17855;BME280;9053;53.358;6.382;2024-01-07T09:13:51;102743.91;;;0.74;90.00
17855;BME280;9053;53.358;6.382;2024-01-07T09:16:21;102744.22;;;0.77;89.70
17855;BME280;9053;53.358;6.382;2024-01-07T09:18:51;102744.69;;;0.73;89.55
17855;BME280;9053;53.358;6.382;2024-01-07T09:21:25;102743.19;;;0.84;89.67
17855;BME280;9053;53.358;6.382;2024-01-07T09:23:58;102742.50;;;1.02;89.64
17855;BME280;9053;53.358;6.382;2024-01-07T09:26:33;102757.31;;;1.12;89.34
17855;BME280;9053;53.358;6.382;2024-01-07T09:29:05;102753.88;;;0.96;89.03
17855;BME280;9053;53.358;6.382;2024-01-07T09:31:35;102749.22;;;1.09;89.12
17855;BME280;9053;53.358;6.382;2024-01-07T09:34:05;102750.63;;;1.14;89.09
17855;BME280;9053;53.358;6.382;2024-01-07T09:36:42;102765.44;;;1.33;89.00
17855;BME280;9053;53.358;6.382;2024-01-07T09:39:16;102765.59;;;1.34;88.98
17855;BME280;9053;53.358;6.382;2024-01-07T09:41:49;102772.78;;;1.45;89.05
17855;BME280;9053;53.358;6.382;2024-01-07T09:44:21;102777.84;;;1.52;88.85
17855;BME280;9053;53.358;6.382;2024-01-07T09:46:54;102785.94;;;1.64;88.83
17855;BME280;9053;53.358;6.382;2024-01-07T09:49:24;102782.44;;;1.72;88.69
17855;BME280;9053;53.358;6.382;2024-01-07T09:51:59;102792.66;;;1.80;88.55
17855;BME280;9053;53.358;6.382;2024-01-07T09:54:31;102782.00;;;1.77;88.48
17855;BME280;9053;53.358;6.382;2024-01-07T09:57:04;102772.22;;;1.74;88.41
17855;BME280;9053;53.358;6.382;2024-01-07T09:59:39;102786.09;;;1.75;88.19
17855;BME280;9053;53.358;6.382;2024-01-07T10:02:09;102780.91;;;1.83;88.25
17855;BME280;9053;53.358;6.382;2024-01-07T10:04:40;102783.22;;;1.71;87.86
17855;BME280;9053;53.358;6.382;2024-01-07T10:07:12;102782.44;;;1.64;87.84
17855;BME280;9053;53.358;6.382;2024-01-07T10:09:42;102783.50;;;1.57;87.73
17855;BME280;9053;53.358;6.382;2024-01-07T10:12:14;102786.66;;;1.46;87.42
17855;BME280;9053;53.358;6.382;2024-01-07T10:14:48;102788.50;;;1.47;87.51
17855;BME280;9053;53.358;6.382;2024-01-07T10:17:25;102800.13;;;1.59;87.39
17855;BME280;9053;53.358;6.382;2024-01-07T10:20:16;102793.81;;;1.48;87.10
17855;BME280;9053;53.358;6.382;2024-01-07T10:22:52;102789.63;;;1.66;87.13
17855;BME280;9053;53.358;6.382;2024-01-07T10:25:44;102797.09;;;1.89;87.07
17855;BME280;9053;53.358;6.382;2024-01-07T10:28:18;102799.22;;;1.93;86.74
17855;BME280;9053;53.358;6.382;2024-01-07T10:30:51;102806.25;;;2.03;86.66
17855;BME280;9053;53.358;6.382;2024-01-07T10:33:21;102792.19;;;2.01;86.56
17855;BME280;9053;53.358;6.382;2024-01-07T10:35:56;102797.41;;;2.10;86.59
17855;BME280;9053;53.358;6.382;2024-01-07T10:38:27;102800.00;;;2.10;86.42
17855;BME280;9053;53.358;6.382;2024-01-07T10:40:59;102812.06;;;2.09;86.43
17855;BME280;9053;53.358;6.382;2024-01-07T10:43:30;102812.38;;;2.12;86.54
17855;BME280;9053;53.358;6.382;2024-01-07T10:46:03;102810.22;;;2.17;86.36
17855;BME280;9053;53.358;6.382;2024-01-07T10:48:37;102807.16;;;2.21;86.77
17855;BME280;9053;53.358;6.382;2024-01-07T10:51:08;102814.63;;;2.27;86.30
17855;BME280;9053;53.358;6.382;2024-01-07T10:53:39;102812.03;;;2.27;86.49
17855;BME280;9053;53.358;6.382;2024-01-07T10:56:12;102812.22;;;2.20;86.34
17855;BME280;9053;53.358;6.382;2024-01-07T10:58:46;102816.66;;;2.12;86.32
17855;BME280;9053;53.358;6.382;2024-01-07T11:01:20;102821.66;;;2.19;86.53
17855;BME280;9053;53.358;6.382;2024-01-07T11:10:30;102827.91;;;1.78;86.87
17855;BME280;9053;53.358;6.382;2024-01-07T11:13:34;102828.50;;;1.84;87.17
17855;BME280;9053;53.358;6.382;2024-01-07T11:16:07;102829.75;;;1.96;87.58
17855;BME280;9053;53.358;6.382;2024-01-07T11:18:46;102836.94;;;2.07;87.76
17855;BME280;9053;53.358;6.382;2024-01-07T11:21:23;102826.38;;;1.88;87.42
17855;BME280;9053;53.358;6.382;2024-01-07T11:24:17;102824.88;;;1.90;87.86
17855;BME280;9053;53.358;6.382;2024-01-07T11:27:01;102831.28;;;2.03;88.08
17855;BME280;9053;53.358;6.382;2024-01-07T11:29:31;102830.38;;;1.85;88.15
17855;BME280;9053;53.358;6.382;2024-01-07T11:32:01;102831.13;;;1.66;87.79
17855;BME280;9053;53.358;6.382;2024-01-07T11:34:41;102832.94;;;1.67;88.02
17855;BME280;9053;53.358;6.382;2024-01-07T11:37:14;102834.59;;;1.58;87.68
17855;BME280;9053;53.358;6.382;2024-01-07T11:39:48;102831.50;;;1.45;87.74
17855;BME280;9053;53.358;6.382;2024-01-07T11:42:21;102838.81;;;1.32;87.84
17855;BME280;9053;53.358;6.382;2024-01-07T11:44:53;102843.53;;;1.36;88.05
17855;BME280;9053;53.358;6.382;2024-01-07T11:47:24;102841.56;;;1.42;88.20
17855;BME280;9053;53.358;6.382;2024-01-07T11:49:55;102836.63;;;1.27;88.32
17855;BME280;9053;53.358;6.382;2024-01-07T11:52:32;102836.09;;;1.39;88.75
17855;BME280;9053;53.358;6.382;2024-01-07T11:55:05;102833.25;;;1.62;88.95
17855;BME280;9053;53.358;6.382;2024-01-07T11:57:42;102832.72;;;1.48;89.17
17855;BME280;9053;53.358;6.382;2024-01-07T12:00:13;102846.47;;;1.56;89.36
17855;BME280;9053;53.358;6.382;2024-01-07T12:02:46;102839.28;;;1.54;89.74
17855;BME280;9053;53.358;6.382;2024-01-07T12:05:16;102837.59;;;1.45;89.82
17855;BME280;9053;53.358;6.382;2024-01-07T12:07:49;102844.91;;;1.41;89.92
17855;BME280;9053;53.358;6.382;2024-01-07T12:10:24;102833.75;;;1.24;89.98
17855;BME280;9053;53.358;6.382;2024-01-07T12:12:57;102839.41;;;1.29;90.32
17855;BME280;9053;53.358;6.382;2024-01-07T12:15:31;102826.63;;;1.48;90.68
17855;BME280;9053;53.358;6.382;2024-01-07T12:18:01;102836.25;;;1.49;90.76
17855;BME280;9053;53.358;6.382;2024-01-07T12:20:32;102835.47;;;1.41;90.73
17855;BME280;9053;53.358;6.382;2024-01-07T12:23:07;102835.13;;;1.38;90.92
17855;BME280;9053;53.358;6.382;2024-01-07T12:25:41;102829.97;;;1.38;90.82
17855;BME280;9053;53.358;6.382;2024-01-07T12:28:16;102836.81;;;1.38;90.87
17855;BME280;9053;53.358;6.382;2024-01-07T12:30:50;102848.19;;;1.64;91.05
17855;BME280;9053;53.358;6.382;2024-01-07T12:33:20;102844.69;;;1.72;90.83
17855;BME280;9053;53.358;6.382;2024-01-07T12:35:54;102843.44;;;1.51;90.86
17855;BME280;9053;53.358;6.382;2024-01-07T12:38:30;102846.34;;;1.63;90.99
17855;BME280;9053;53.358;6.382;2024-01-07T12:41:21;102845.31;;;1.70;90.87
17855;BME280;9053;53.358;6.382;2024-01-07T12:43:55;102839.81;;;1.76;90.91
17855;BME280;9053;53.358;6.382;2024-01-07T12:46:25;102844.09;;;1.75;90.86
17855;BME280;9053;53.358;6.382;2024-01-07T12:48:56;102847.72;;;1.68;90.68
17855;BME280;9053;53.358;6.382;2024-01-07T12:51:36;102851.41;;;1.62;90.51
17855;BME280;9053;53.358;6.382;2024-01-07T12:54:11;102847.13;;;1.62;90.54
17855;BME280;9053;53.358;6.382;2024-01-07T12:56:45;102852.59;;;1.65;90.64
17855;BME280;9053;53.358;6.382;2024-01-07T12:59:17;102859.34;;;1.81;90.52
17855;BME280;9053;53.358;6.382;2024-01-07T13:01:47;102857.22;;;1.77;90.30
17855;BME280;9053;53.358;6.382;2024-01-07T13:04:21;102845.94;;;1.85;90.58
17855;BME280;9053;53.358;6.382;2024-01-07T13:06:52;102855.69;;;1.96;90.59
17855;BME280;9053;53.358;6.382;2024-01-07T13:09:26;102852.19;;;1.95;90.44
17855;BME280;9053;53.358;6.382;2024-01-07T13:12:02;102854.47;;;2.01;90.54
17855;BME280;9053;53.358;6.382;2024-01-07T13:14:35;102853.13;;;2.13;90.55
17855;BME280;9053;53.358;6.382;2024-01-07T13:17:06;102853.91;;;2.12;90.25
17855;BME280;9053;53.358;6.382;2024-01-07T13:19:41;102856.03;;;1.99;90.34
17855;BME280;9053;53.358;6.382;2024-01-07T13:22:16;102861.03;;;1.89;90.01
17855;BME280;9053;53.358;6.382;2024-01-07T13:24:46;102866.84;;;1.78;89.85
17855;BME280;9053;53.358;6.382;2024-01-07T13:27:18;102871.66;;;1.57;89.53
17855;BME280;9053;53.358;6.382;2024-01-07T13:30:00;102863.59;;;1.63;89.72
17855;BME280;9053;53.358;6.382;2024-01-07T13:32:40;102872.03;;;1.78;89.59
17855;BME280;9053;53.358;6.382;2024-01-07T13:35:14;102871.72;;;1.83;89.40
17855;BME280;9053;53.358;6.382;2024-01-07T13:37:45;102876.13;;;1.67;89.33
17855;BME280;9053;53.358;6.382;2024-01-07T13:40:27;102878.81;;;1.51;89.19